Time;durP1;ratioP1;P1;durP2;ratioP2;P2;SDS_P1;SDS_P2;PMS_P1;PMS_P2;Temp;Humidity;BMP_temperature;BMP_pressure;BME280_temperature;BME280_humidity;BME280_pressure;Samples;Min_cycle;Max_cycle;Signal;HPM_P1;HPM_P2
2023/01/05 00:02:01;;;;;;;82.70;51.05;;;;;;;;;;6276363;22;20427;-70
2023/01/05 00:04:27;;;;;;;82.03;51.90;;;;;;;;;;6276391;22;20300;-69
2023/01/05 00:06:53;;;;;;;75.43;49.22;;;;;;;;;;6249848;22;20060;-69
2023/01/05 00:09:19;;;;;;;80.88;53.60;;;;;;;;;;6276401;22;20334;-70
2023/01/05 00:22:59;;;;;;;72.82;49.45;;;;;;;;;;6276289;22;20161;-70
2023/01/05 00:25:29;;;;;;;77.93;50.35;;;;;;;;;;6276341;22;20007;-70
2023/01/05 00:27:57;;;;;;;72.75;49.33;;;;;;;;;;6275830;22;20016;-70
2023/01/05 00:30:33;;;;;;;74.97;50.70;;;;;;;;;;6276320;22;20074;-69
2023/01/05 00:32:59;;;;;;;85.22;53.97;;;;;;;;;;6276511;22;20338;-68
2023/01/05 00:35:25;;;;;;;81.35;54.47;;;;;;;;;;6276047;22;20426;-70
2023/01/05 00:37:52;;;;;;;82.30;53.58;;;;;;;;;;6276345;22;20006;-69
2023/01/05 00:40:19;;;;;;;78.93;50.65;;;;;;;;;;6275783;22;20322;-69
2023/01/05 00:42:46;;;;;;;75.18;50.15;;;;;;;;;;6275926;22;20371;-69
2023/01/05 00:45:13;;;;;;;76.00;52.28;;;;;;;;;;6275721;22;20050;-70
2023/01/05 00:47:39;;;;;;;77.97;51.20;;;;;;;;;;6276123;22;20028;-70
2023/01/05 00:50:06;;;;;;;75.63;51.95;;;;;;;;;;6276082;22;20086;-70
2023/01/05 00:52:32;;;;;;;82.20;52.70;;;;;;;;;;6275977;22;20000;-70
2023/01/05 00:54:58;;;;;;;79.55;52.97;;;;;;;;;;6275908;22;20453;-70
2023/01/05 00:57:24;;;;;;;77.35;52.03;;;;;;;;;;6275932;22;20029;-70
2023/01/05 00:59:50;;;;;;;79.75;52.33;;;;;;;;;;6276105;22;20000;-70
2023/01/05 01:02:16;;;;;;;81.70;53.00;;;;;;;;;;6276220;22;20008;-70
2023/01/05 01:04:42;;;;;;;77.88;51.17;;;;;;;;;;6249027;22;20004;-70
2023/01/05 01:07:08;;;;;;;77.45;50.78;;;;;;;;;;6276199;22;20086;-69
2023/01/05 01:09:36;;;;;;;77.80;52.00;;;;;;;;;;6275853;22;20326;-70
2023/01/05 01:12:02;;;;;;;80.10;51.90;;;;;;;;;;6276035;22;20014;-70
2023/01/05 01:14:28;;;;;;;77.18;50.53;;;;;;;;;;6276303;22;20179;-69
2023/01/05 01:16:54;;;;;;;74.82;50.92;;;;;;;;;;6275818;22;20004;-71
2023/01/05 01:19:22;;;;;;;78.22;51.90;;;;;;;;;;6275997;22;20400;-70
2023/01/05 01:21:48;;;;;;;73.70;49.22;;;;;;;;;;6276085;22;20426;-71
2023/01/05 01:24:16;;;;;;;69.28;48.83;;;;;;;;;;6277518;22;20445;-70
2023/01/05 01:26:42;;;;;;;75.47;50.22;;;;;;;;;;6250411;22;20061;-70
2023/01/05 01:29:08;;;;;;;76.75;50.83;;;;;;;;;;6250674;22;20018;-70
2023/01/05 01:31:34;;;;;;;69.28;47.70;;;;;;;;;;6278337;22;20011;-70
2023/01/05 01:34:01;;;;;;;67.75;46.45;;;;;;;;;;6277872;22;19999;-70
2023/01/05 01:36:27;;;;;;;67.70;43.45;;;;;;;;;;6278176;22;20057;-71
2023/01/05 01:38:53;;;;;;;70.72;46.22;;;;;;;;;;6250411;22;20014;-70
2023/01/05 01:41:19;;;;;;;71.78;45.92;;;;;;;;;;6277887;22;20015;-70
2023/01/05 01:43:50;;;;;;;62.75;43.33;;;;;;;;;;6278038;22;20386;-70
2023/01/05 01:46:16;;;;;;;67.85;43.03;;;;;;;;;;6277917;22;20074;-70
2023/01/05 01:48:46;;;;;;;70.40;44.38;;;;;;;;;;6278235;22;20000;-69
2023/01/05 01:51:15;;;;;;;69.07;44.30;;;;;;;;;;6277576;22;20009;-69
2023/01/05 01:53:42;;;;;;;68.90;44.17;;;;;;;;;;6278099;22;20003;-70
2023/01/05 01:56:11;;;;;;;69.40;44.85;;;;;;;;;;6277661;22;20008;-70
2023/01/05 01:58:37;;;;;;;65.85;43.65;;;;;;;;;;6275365;22;20004;-70
2023/01/05 02:01:03;;;;;;;67.10;42.60;;;;;;;;;;6273771;22;20004;-70
2023/01/05 02:03:30;;;;;;;68.05;43.65;;;;;;;;;;6274184;22;20009;-70
2023/01/05 02:05:57;;;;;;;70.07;44.67;;;;;;;;;;6276817;22;20063;-70
2023/01/05 02:08:32;;;;;;;72.95;43.40;;;;;;;;;;6277580;22;20374;-69
2023/01/05 02:11:01;;;;;;;65.28;43.40;;;;;;;;;;6277931;22;19996;-70
2023/01/05 02:13:27;;;;;;;70.30;45.95;;;;;;;;;;6277259;22;20326;-69
2023/01/05 02:16:01;;;;;;;63.53;42.53;;;;;;;;;;6277788;22;20002;-69
2023/01/05 02:18:28;;;;;;;69.63;43.03;;;;;;;;;;6277516;22;20074;-69
2023/01/05 02:21:07;;;;;;;71.18;45.85;;;;;;;;;;6277441;22;20000;-70
2023/01/05 02:23:51;;;;;;;64.85;43.80;;;;;;;;;;6277591;22;20008;-70
2023/01/05 02:26:45;;;;;;;72.57;45.80;;;;;;;;;;6277551;22;19996;-70
2023/01/05 02:29:11;;;;;;;71.60;45.00;;;;;;;;;;6276774;22;20094;-69
2023/01/05 02:31:45;;;;;;;65.97;42.70;;;;;;;;;;6277343;22;20054;-69
2023/01/05 02:34:32;;;;;;;71.72;44.92;;;;;;;;;;6276548;22;20468;-69
2023/01/05 02:36:58;;;;;;;70.90;45.63;;;;;;;;;;6276586;22;20006;-69
2023/01/05 02:39:24;;;;;;;74.47;46.47;;;;;;;;;;6250265;22;20089;-69
2023/01/05 02:41:53;;;;;;;72.90;46.35;;;;;;;;;;6276920;22;20083;-69
2023/01/05 02:44:19;;;;;;;72.15;46.78;;;;;;;;;;6276216;22;20058;-70
2023/01/05 02:46:46;;;;;;;69.35;44.75;;;;;;;;;;6277094;22;20326;-70
2023/01/05 02:49:14;;;;;;;70.55;44.97;;;;;;;;;;6277019;22;20442;-70
2023/01/05 02:51:42;;;;;;;71.85;45.88;;;;;;;;;;6274498;22;20010;-70
2023/01/05 02:54:14;;;;;;;75.85;47.45;;;;;;;;;;6273938;22;20130;-70
2023/01/05 02:56:43;;;;;;;77.53;48.05;;;;;;;;;;6275577;22;20003;-70
2023/01/05 02:59:35;;;;;;;74.32;47.63;;;;;;;;;;6277131;22;20078;-70
2023/01/05 03:02:04;;;;;;;74.18;46.75;;;;;;;;;;6272357;22;20501;-70
2023/01/05 03:04:33;;;;;;;76.43;48.00;;;;;;;;;;6277030;22;20006;-69
2023/01/05 03:07:01;;;;;;;75.38;50.10;;;;;;;;;;6276811;22;20091;-70
2023/01/05 03:09:35;;;;;;;77.38;50.33;;;;;;;;;;6277111;22;20003;-70
2023/01/05 03:14:58;;;;;;;81.78;51.28;;;;;;;;;;6276980;22;20066;-70
2023/01/05 03:17:32;;;;;;;84.22;53.38;;;;;;;;;;6276923;22;20007;-70
2023/01/05 03:19:59;;;;;;;83.00;53.30;;;;;;;;;;6277170;22;20003;-70
2023/01/05 03:36:32;;;;;;;78.90;51.17;;;;;;;;;;6276596;22;20015;-70
2023/01/05 03:39:01;;;;;;;83.43;51.85;;;;;;;;;;6276612;22;20460;-70
2023/01/05 03:41:28;;;;;;;78.65;50.97;;;;;;;;;;6276177;22;20307;-70
2023/01/05 03:43:55;;;;;;;76.97;51.53;;;;;;;;;;6276703;22;20023;-70
2023/01/05 03:46:21;;;;;;;82.45;51.25;;;;;;;;;;6276687;22;20418;-69
2023/01/05 03:48:48;;;;;;;74.07;49.20;;;;;;;;;;6277108;22;20000;-69
2023/01/05 03:51:15;;;;;;;72.35;48.67;;;;;;;;;;6276668;22;20038;-70
2023/01/05 03:53:41;;;;;;;74.35;48.92;;;;;;;;;;6276520;22;20030;-70
2023/01/05 03:56:07;;;;;;;73.70;49.40;;;;;;;;;;6276742;22;20030;-70
2023/01/05 03:58:33;;;;;;;83.60;51.33;;;;;;;;;;6276479;22;20000;-70
2023/01/05 04:00:59;;;;;;;76.20;51.88;;;;;;;;;;6276573;22;20031;-70
2023/01/05 04:03:25;;;;;;;80.22;52.30;;;;;;;;;;6276445;22;20027;-70
2023/01/05 04:05:51;;;;;;;79.55;50.55;;;;;;;;;;6276063;22;20334;-70
2023/01/05 04:08:18;;;;;;;73.97;51.15;;;;;;;;;;6276305;22;20440;-70
2023/01/05 04:10:44;;;;;;;76.75;51.28;;;;;;;;;;6276250;22;20004;-70
2023/01/05 04:13:10;;;;;;;71.15;48.25;;;;;;;;;;6249256;22;20003;-69
2023/01/05 04:15:36;;;;;;;66.88;46.90;;;;;;;;;;6276476;22;19995;-69
2023/01/05 04:18:02;;;;;;;73.95;51.00;;;;;;;;;;6276489;22;20035;-70
2023/01/05 04:20:28;;;;;;;74.55;49.10;;;;;;;;;;6276437;22;20000;-70
2023/01/05 04:22:54;;;;;;;73.93;51.25;;;;;;;;;;6276079;22;20057;-70
2023/01/05 04:25:20;;;;;;;72.18;49.95;;;;;;;;;;6276307;22;19999;-70
2023/01/05 04:27:46;;;;;;;71.72;49.75;;;;;;;;;;6276190;22;20091;-70
2023/01/05 04:30:12;;;;;;;74.32;50.55;;;;;;;;;;6276015;22;20003;-70
2023/01/05 04:32:38;;;;;;;72.68;50.05;;;;;;;;;;6276292;22;20395;-69
2023/01/05 04:35:04;;;;;;;68.57;47.20;;;;;;;;;;6276132;22;20003;-69
2023/01/05 04:37:31;;;;;;;66.30;45.80;;;;;;;;;;6276222;22;19996;-69
2023/01/05 04:39:57;;;;;;;68.22;47.95;;;;;;;;;;6248834;22;20377;-69
2023/01/05 04:42:23;;;;;;;73.05;49.08;;;;;;;;;;6275835;22;20008;-69
2023/01/05 04:44:50;;;;;;;68.22;46.60;;;;;;;;;;6276334;22;20077;-70
2023/01/05 04:47:16;;;;;;;72.38;47.92;;;;;;;;;;6276244;22;20373;-69
2023/01/05 04:49:42;;;;;;;70.22;48.30;;;;;;;;;;6276300;22;20026;-70
2023/01/05 04:52:08;;;;;;;70.82;48.60;;;;;;;;;;6276039;22;20418;-69
2023/01/05 04:54:35;;;;;;;73.35;47.33;;;;;;;;;;6276237;22;20438;-70
2023/01/05 04:57:03;;;;;;;74.65;48.70;;;;;;;;;;6275678;22;20027;-70
2023/01/05 04:59:29;;;;;;;74.05;46.78;;;;;;;;;;6276145;22;20027;-69
2023/01/05 05:01:55;;;;;;;72.07;45.92;;;;;;;;;;6275835;22;20047;-70
2023/01/05 05:04:21;;;;;;;66.82;45.90;;;;;;;;;;6275700;22;20058;-70
2023/01/05 05:06:47;;;;;;;69.70;44.78;;;;;;;;;;6276226;22;20023;-69
2023/01/05 05:09:13;;;;;;;68.63;45.60;;;;;;;;;;6275941;22;20003;-70
2023/01/05 05:11:39;;;;;;;71.85;44.72;;;;;;;;;;6248847;22;20319;-70
2023/01/05 05:14:05;;;;;;;71.70;47.13;;;;;;;;;;6275696;22;20011;-69
2023/01/05 05:16:31;;;;;;;75.20;47.00;;;;;;;;;;6275917;22;20000;-70
2023/01/05 05:18:57;;;;;;;73.40;45.83;;;;;;;;;;6276028;22;20370;-70
2023/01/05 05:21:23;;;;;;;78.57;47.55;;;;;;;;;;6275818;22;19999;-69
2023/01/05 05:23:49;;;;;;;72.07;46.63;;;;;;;;;;6275901;22;20031;-69
2023/01/05 05:26:15;;;;;;;65.75;44.92;;;;;;;;;;6275431;22;20023;-69
2023/01/05 05:28:41;;;;;;;71.65;46.70;;;;;;;;;;6275618;22;20082;-70
2023/01/05 05:31:07;;;;;;;64.40;45.45;;;;;;;;;;6275899;22;20027;-69
2023/01/05 05:33:33;;;;;;;67.97;43.88;;;;;;;;;;6276046;22;19996;-70
2023/01/05 05:35:59;;;;;;;66.93;43.22;;;;;;;;;;6275981;22;19999;-69
2023/01/05 05:38:25;;;;;;;66.85;44.47;;;;;;;;;;6276047;22;19996;-70
2023/01/05 05:40:51;;;;;;;66.90;45.72;;;;;;;;;;6275825;22;20011;-69
2023/01/05 05:43:17;;;;;;;65.45;44.17;;;;;;;;;;6275284;22;20015;-69
2023/01/05 05:45:44;;;;;;;71.43;45.28;;;;;;;;;;6276298;22;19996;-69
2023/01/05 05:48:10;;;;;;;67.35;43.05;;;;;;;;;;6275990;22;20042;-69
2023/01/05 05:50:36;;;;;;;64.55;42.25;;;;;;;;;;6276043;22;19995;-69
2023/01/05 05:53:02;;;;;;;68.68;43.78;;;;;;;;;;6248910;22;20008;-70
2023/01/05 05:55:28;;;;;;;67.05;43.35;;;;;;;;;;6275608;22;20016;-69
2023/01/05 05:57:54;;;;;;;69.13;42.65;;;;;;;;;;6275813;22;20004;-69
2023/01/05 06:00:20;;;;;;;67.75;43.00;;;;;;;;;;6276093;22;20000;-70
2023/01/05 06:02:46;;;;;;;66.47;43.63;;;;;;;;;;6248687;22;20405;-69
2023/01/05 06:05:12;;;;;;;67.03;43.05;;;;;;;;;;6275468;22;20000;-69
2023/01/05 06:07:38;;;;;;;69.15;43.80;;;;;;;;;;6275704;22;20007;-69
2023/01/05 06:10:05;;;;;;;70.35;44.13;;;;;;;;;;6276957;22;20025;-70
2023/01/05 06:12:31;;;;;;;61.97;42.17;;;;;;;;;;6277448;22;20330;-69
2023/01/05 06:14:57;;;;;;;62.30;40.15;;;;;;;;;;6277385;22;20006;-69
2023/01/05 06:17:23;;;;;;;62.78;41.70;;;;;;;;;;6277161;22;20000;-69
2023/01/05 06:19:49;;;;;;;69.90;42.00;;;;;;;;;;6277566;22;20311;-70
2023/01/05 06:22:15;;;;;;;65.32;42.92;;;;;;;;;;6277597;22;20381;-69
2023/01/05 06:24:41;;;;;;;65.70;41.15;;;;;;;;;;6250419;22;20003;-69
2023/01/05 06:27:07;;;;;;;63.83;42.45;;;;;;;;;;6277165;22;20004;-70
2023/01/05 06:29:33;;;;;;;64.55;42.05;;;;;;;;;;6277801;22;20138;-69
2023/01/05 06:31:59;;;;;;;65.82;42.50;;;;;;;;;;6277435;22;20015;-69
2023/01/05 06:34:25;;;;;;;67.47;42.83;;;;;;;;;;6277400;22;20000;-69
2023/01/05 06:36:52;;;;;;;64.60;41.80;;;;;;;;;;6277047;22;20322;-69
2023/01/05 06:39:18;;;;;;;67.57;42.05;;;;;;;;;;6277410;22;20027;-69
2023/01/05 06:41:44;;;;;;;66.72;43.13;;;;;;;;;;6277250;22;20094;-69
2023/01/05 06:44:10;;;;;;;61.55;41.17;;;;;;;;;;6276992;22;20007;-68
2023/01/05 06:46:36;;;;;;;62.67;41.10;;;;;;;;;;6276460;22;20331;-70
2023/01/05 06:49:02;;;;;;;63.67;43.08;;;;;;;;;;6277039;22;20003;-69
2023/01/05 06:51:28;;;;;;;70.30;42.65;;;;;;;;;;6277144;22;20003;-69
2023/01/05 06:53:54;;;;;;;63.90;41.45;;;;;;;;;;6276787;22;20083;-71
2023/01/05 06:56:20;;;;;;;64.75;43.22;;;;;;;;;;6276559;22;20061;-71
2023/01/05 06:58:46;;;;;;;66.15;43.42;;;;;;;;;;6276573;22;20010;-71
2023/01/05 07:01:13;;;;;;;61.67;41.35;;;;;;;;;;6276804;22;20023;-71
2023/01/05 07:03:38;;;;;;;60.72;39.95;;;;;;;;;;6276973;22;20012;-71
2023/01/05 07:06:05;;;;;;;62.33;40.00;;;;;;;;;;6276778;22;20445;-71
2023/01/05 07:08:31;;;;;;;65.05;42.28;;;;;;;;;;6276739;22;20073;-71
2023/01/05 07:10:57;;;;;;;58.80;40.05;;;;;;;;;;6249579;22;20422;-71
2023/01/05 07:13:23;;;;;;;62.42;40.88;;;;;;;;;;6276449;22;20514;-71
2023/01/05 07:15:49;;;;;;;67.85;43.25;;;;;;;;;;6248927;22;20004;-71
2023/01/05 07:18:15;;;;;;;62.88;41.13;;;;;;;;;;6276720;22;20011;-72
2023/01/05 07:20:41;;;;;;;64.38;41.35;;;;;;;;;;6276346;22;19999;-71
2023/01/05 07:23:07;;;;;;;62.80;41.35;;;;;;;;;;6276750;22;20331;-70
2023/01/05 07:25:33;;;;;;;62.90;42.25;;;;;;;;;;6276902;22;19996;-71
2023/01/05 07:27:59;;;;;;;60.20;40.08;;;;;;;;;;6249221;22;20012;-71
2023/01/05 07:30:25;;;;;;;65.97;41.53;;;;;;;;;;6276694;22;20053;-72
2023/01/05 07:32:51;;;;;;;63.05;39.67;;;;;;;;;;6276433;22;20004;-72
2023/01/05 07:35:17;;;;;;;59.97;39.85;;;;;;;;;;6276501;22;20015;-72
2023/01/05 07:37:43;;;;;;;69.57;42.17;;;;;;;;;;6276640;22;20003;-71
2023/01/05 07:40:10;;;;;;;67.93;41.20;;;;;;;;;;6276376;22;20010;-71
2023/01/05 07:42:36;;;;;;;67.30;42.45;;;;;;;;;;6276262;22;20007;-72
2023/01/05 07:45:02;;;;;;;66.10;41.17;;;;;;;;;;6276358;22;20372;-71
2023/01/05 07:47:30;;;;;;;61.40;40.53;;;;;;;;;;6276195;22;20023;-71
2023/01/05 07:49:56;;;;;;;66.82;41.92;;;;;;;;;;6249267;22;20002;-72
2023/01/05 07:52:22;;;;;;;66.93;43.03;;;;;;;;;;6276147;22;20000;-71
2023/01/05 07:54:48;;;;;;;65.30;42.13;;;;;;;;;;6276177;22;20000;-72
2023/01/05 07:57:14;;;;;;;64.47;41.92;;;;;;;;;;6276413;22;20011;-71
2023/01/05 07:59:40;;;;;;;67.00;41.38;;;;;;;;;;6276393;22;20006;-72
2023/01/05 08:02:06;;;;;;;65.85;42.47;;;;;;;;;;6274671;22;20019;-72
2023/01/05 08:04:32;;;;;;;67.65;44.08;;;;;;;;;;6272485;22;19999;-73
2023/01/05 08:06:58;;;;;;;73.70;45.72;;;;;;;;;;6272779;22;20049;-73
2023/01/05 08:12:08;;;;;;;69.93;44.25;;;;;;;;;;6276128;22;20468;-72
2023/01/05 08:14:34;;;;;;;70.85;45.25;;;;;;;;;;6275963;22;20003;-73
2023/01/05 08:17:00;;;;;;;74.72;46.25;;;;;;;;;;6275957;22;20074;-71
2023/01/05 08:19:26;;;;;;;72.78;47.42;;;;;;;;;;6276060;22;20022;-71
2023/01/05 08:21:52;;;;;;;77.45;45.45;;;;;;;;;;6276233;22;20015;-71
2023/01/05 08:24:18;;;;;;;72.72;44.40;;;;;;;;;;6275559;22;20446;-70
2023/01/05 08:26:44;;;;;;;74.30;46.03;;;;;;;;;;6275967;22;19999;-71
2023/01/05 08:29:10;;;;;;;68.93;44.28;;;;;;;;;;6276087;22;20053;-70
2023/01/05 08:31:38;;;;;;;73.10;45.60;;;;;;;;;;6275830;22;20026;-70
2023/01/05 08:34:05;;;;;;;77.30;45.53;;;;;;;;;;6275822;22;20074;-70
2023/01/05 08:36:32;;;;;;;73.72;47.28;;;;;;;;;;6274123;22;20456;-70
2023/01/05 08:39:00;;;;;;;79.93;46.22;;;;;;;;;;6272521;22;20010;-70
2023/01/05 08:41:31;;;;;;;79.85;47.28;;;;;;;;;;6273718;22;20003;-70
2023/01/05 08:43:58;;;;;;;74.97;48.80;;;;;;;;;;6276106;22;20394;-71
2023/01/05 08:46:25;;;;;;;75.35;46.95;;;;;;;;;;6275663;22;20003;-69
2023/01/05 08:48:54;;;;;;;81.05;47.15;;;;;;;;;;6275928;22;20226;-69
2023/01/05 08:51:21;;;;;;;76.80;48.33;;;;;;;;;;6275961;22;20011;-69
2023/01/05 08:53:47;;;;;;;79.10;48.25;;;;;;;;;;6276130;22;20004;-70
2023/01/05 08:56:13;;;;;;;78.55;48.25;;;;;;;;;;6275170;22;19995;-69
2023/01/05 08:58:40;;;;;;;77.88;47.80;;;;;;;;;;6275335;22;20004;-70
2023/01/05 09:01:07;;;;;;;73.68;46.42;;;;;;;;;;6275957;22;20054;-69
2023/01/05 09:03:33;;;;;;;76.00;46.28;;;;;;;;;;6275171;22;20341;-68
2023/01/05 09:06:01;;;;;;;77.15;46.92;;;;;;;;;;6274208;22;20427;-68
2023/01/05 09:08:28;;;;;;;74.85;46.90;;;;;;;;;;6275156;22;20000;-69
2023/01/05 09:10:54;;;;;;;78.90;46.40;;;;;;;;;;6275279;22;20000;-69
2023/01/05 09:13:20;;;;;;;80.53;47.70;;;;;;;;;;6248116;22;20010;-68
2023/01/05 09:15:46;;;;;;;82.28;48.70;;;;;;;;;;6275551;22;19996;-71
2023/01/05 09:18:12;;;;;;;74.57;47.30;;;;;;;;;;6275395;22;20007;-68
2023/01/05 09:20:38;;;;;;;72.40;45.70;;;;;;;;;;6275496;22;20118;-68
2023/01/05 09:23:04;;;;;;;76.75;45.75;;;;;;;;;;6274901;22;20061;-69
2023/01/05 09:25:30;;;;;;;79.20;47.10;;;;;;;;;;6275175;22;20365;-69
2023/01/05 09:27:56;;;;;;;74.57;43.00;;;;;;;;;;6247531;22;20102;-68
2023/01/05 09:30:22;;;;;;;75.20;46.67;;;;;;;;;;6275520;22;20000;-69
2023/01/05 09:32:48;;;;;;;73.55;44.80;;;;;;;;;;6275525;22;20457;-69
2023/01/05 09:35:14;;;;;;;78.78;45.80;;;;;;;;;;6275157;22;19996;-69
2023/01/05 09:37:40;;;;;;;79.05;46.42;;;;;;;;;;6248360;22;20010;-69
2023/01/05 09:40:06;;;;;;;69.20;44.10;;;;;;;;;;6275610;22;20006;-70
2023/01/05 09:42:35;;;;;;;74.63;45.72;;;;;;;;;;6275878;22;20012;-70
2023/01/05 09:45:04;;;;;;;75.20;45.33;;;;;;;;;;6276250;22;20050;-70
2023/01/05 09:47:34;;;;;;;71.72;44.03;;;;;;;;;;6275677;22;20000;-70
2023/01/05 09:50:00;;;;;;;73.20;45.60;;;;;;;;;;6277725;22;20006;-70
2023/01/05 09:52:27;;;;;;;77.45;46.40;;;;;;;;;;6277839;22;20023;-70
2023/01/05 09:54:53;;;;;;;72.28;44.60;;;;;;;;;;6277857;22;20049;-69
2023/01/05 09:57:20;;;;;;;69.65;44.45;;;;;;;;;;6250635;22;20003;-69
2023/01/05 09:59:49;;;;;;;73.55;45.65;;;;;;;;;;6277840;22;20027;-69
2023/01/05 10:02:30;;;;;;;80.45;46.97;;;;;;;;;;6277677;22;20022;-69
2023/01/05 10:04:57;;;;;;;75.43;46.20;;;;;;;;;;6278160;22;20336;-70
2023/01/05 10:07:31;;;;;;;74.55;46.10;;;;;;;;;;6277728;22;20000;-69
2023/01/05 10:09:59;;;;;;;74.80;45.92;;;;;;;;;;6278056;22;20049;-70
2023/01/05 10:15:21;;;;;;;77.45;46.45;;;;;;;;;;6277646;22;20338;-69
2023/01/05 10:17:47;;;;;;;77.97;48.80;;;;;;;;;;6277756;22;19996;-70
2023/01/05 10:20:15;;;;;;;81.15;49.10;;;;;;;;;;6277442;22;20414;-70
2023/01/05 10:22:44;;;;;;;73.30;46.50;;;;;;;;;;6277380;22;20426;-69
2023/01/05 10:25:21;;;;;;;87.97;49.83;;;;;;;;;;6277456;22;20006;-70
2023/01/05 10:28:10;;;;;;;83.55;50.65;;;;;;;;;;6277333;22;20066;-70
2023/01/05 10:30:55;;;;;;;81.07;50.40;;;;;;;;;;6265442;22;20003;-68
2023/01/05 10:33:28;;;;;;;87.40;50.28;;;;;;;;;;6277608;22;20339;-69
2023/01/05 10:36:02;;;;;;;81.55;50.45;;;;;;;;;;6277567;22;20438;-70
2023/01/05 10:38:28;;;;;;;89.25;50.33;;;;;;;;;;6250181;22;20014;-69
2023/01/05 10:41:12;;;;;;;82.28;48.80;;;;;;;;;;6277551;22;19995;-70
2023/01/05 10:44:08;;;;;;;82.80;50.55;;;;;;;;;;6276938;22;20018;-69
2023/01/05 10:46:36;;;;;;;80.20;49.50;;;;;;;;;;6195315;22;20094;-69
2023/01/05 10:49:05;;;;;;;75.78;49.35;;;;;;;;;;6276989;22;20004;-69
2023/01/05 10:51:35;;;;;;;80.93;51.13;;;;;;;;;;6276791;22;20004;-70
2023/01/05 10:54:02;;;;;;;79.53;49.03;;;;;;;;;;6276806;22;20000;-70
2023/01/05 10:56:28;;;;;;;80.15;51.15;;;;;;;;;;6276457;22;20031;-69
2023/01/05 10:59:10;;;;;;;80.25;51.38;;;;;;;;;;6276880;22;20435;-70
2023/01/05 11:01:37;;;;;;;80.15;49.88;;;;;;;;;;6277008;22;20057;-69
2023/01/05 11:04:20;;;;;;;78.28;48.50;;;;;;;;;;6276571;22;20083;-70
2023/01/05 11:06:46;;;;;;;77.38;49.95;;;;;;;;;;6249957;22;20053;-69
2023/01/05 11:09:12;;;;;;;81.20;50.33;;;;;;;;;;6277154;22;20022;-69
2023/01/05 11:11:39;;;;;;;89.55;52.13;;;;;;;;;;6276818;22;20087;-69
2023/01/05 11:14:05;;;;;;;79.80;51.17;;;;;;;;;;6276483;22;19996;-69
2023/01/05 11:16:33;;;;;;;82.25;50.83;;;;;;;;;;6277201;22;20007;-69
2023/01/05 11:19:01;;;;;;;81.55;50.88;;;;;;;;;;6277145;22;20121;-70
2023/01/05 11:21:47;;;;;;;79.25;51.05;;;;;;;;;;6277129;22;20361;-69
2023/01/05 11:24:23;;;;;;;77.18;49.65;;;;;;;;;;6276934;22;20120;-69
2023/01/05 11:26:50;;;;;;;76.45;48.85;;;;;;;;;;6276615;22;20421;-69
2023/01/05 11:29:17;;;;;;;84.72;51.40;;;;;;;;;;6276720;22;20011;-70
2023/01/05 11:32:02;;;;;;;85.13;51.47;;;;;;;;;;6276579;22;20000;-69
2023/01/05 11:34:31;;;;;;;73.72;48.42;;;;;;;;;;6276824;22;20490;-69
2023/01/05 11:36:58;;;;;;;78.25;50.05;;;;;;;;;;6276641;22;19999;-69
2023/01/05 11:39:35;;;;;;;76.18;50.13;;;;;;;;;;6249593;22;20074;-69
2023/01/05 11:42:09;;;;;;;75.45;48.80;;;;;;;;;;6276455;22;20338;-70
2023/01/05 11:44:35;;;;;;;72.80;46.08;;;;;;;;;;6276414;22;20000;-70
2023/01/05 11:47:01;;;;;;;73.85;45.72;;;;;;;;;;6276345;22;20000;-69
2023/01/05 11:49:28;;;;;;;72.18;44.00;;;;;;;;;;6276608;22;20063;-69
2023/01/05 11:51:54;;;;;;;68.68;40.67;;;;;;;;;;6276366;22;19995;-71
2023/01/05 11:54:33;;;;;;;65.20;41.67;;;;;;;;;;6276636;22;20035;-70
2023/01/05 11:57:21;;;;;;;60.00;38.83;;;;;;;;;;6276556;22;20372;-70
2023/01/05 11:59:49;;;;;;;65.85;40.53;;;;;;;;;;6276623;22;20006;-69
2023/01/05 12:02:34;;;;;;;62.50;39.70;;;;;;;;;;6276563;22;20011;-70
2023/01/05 12:05:15;;;;;;;60.58;40.63;;;;;;;;;;6276768;22;20118;-68
2023/01/05 12:07:45;;;;;;;73.53;41.80;;;;;;;;;;6276149;22;20125;-69
2023/01/05 12:10:34;;;;;;;66.68;41.40;;;;;;;;;;6276475;22;19996;-69
2023/01/05 12:13:00;;;;;;;66.22;42.30;;;;;;;;;;6276372;22;20004;-69
2023/01/05 12:15:35;;;;;;;73.00;41.33;;;;;;;;;;6276332;22;20003;-69
2023/01/05 12:18:10;;;;;;;64.90;42.90;;;;;;;;;;6276204;22;20004;-69
2023/01/05 12:20:40;;;;;;;69.68;45.78;;;;;;;;;;6276173;22;20058;-69
2023/01/05 12:23:18;;;;;;;69.00;43.33;;;;;;;;;;6275944;22;20011;-69
2023/01/05 12:25:50;;;;;;;72.07;44.50;;;;;;;;;;6276317;22;20004;-69
2023/01/05 12:28:16;;;;;;;69.65;44.10;;;;;;;;;;6275879;22;20098;-69
2023/01/05 12:30:42;;;;;;;72.00;45.65;;;;;;;;;;6272785;22;20046;-70
2023/01/05 12:33:20;;;;;;;71.72;44.80;;;;;;;;;;6272457;22;20003;-69
2023/01/05 12:35:54;;;;;;;67.63;43.25;;;;;;;;;;6273045;22;19999;-69
2023/01/05 12:38:29;;;;;;;66.80;42.08;;;;;;;;;;6273458;22;20074;-70
2023/01/05 12:40:58;;;;;;;71.13;44.15;;;;;;;;;;6272374;22;20053;-70
2023/01/05 12:43:27;;;;;;;69.30;43.78;;;;;;;;;;6271542;22;20039;-70
2023/01/05 12:46:02;;;;;;;71.10;42.90;;;;;;;;;;6276020;22;20000;-68
2023/01/05 12:48:28;;;;;;;64.22;42.28;;;;;;;;;;6275800;22;20054;-68
2023/01/05 12:51:11;;;;;;;74.63;45.33;;;;;;;;;;6275693;22;20365;-69
2023/01/05 12:53:42;;;;;;;65.30;42.13;;;;;;;;;;6275847;22;20010;-68
2023/01/05 12:56:14;;;;;;;65.85;41.05;;;;;;;;;;6275633;22;20015;-68
2023/01/05 12:58:42;;;;;;;66.75;41.05;;;;;;;;;;6275384;22;20042;-69
2023/01/05 13:01:16;;;;;;;66.43;40.17;;;;;;;;;;6275838;22;20010;-68
2023/01/05 13:03:46;;;;;;;64.82;39.47;;;;;;;;;;6276008;22;20081;-68
2023/01/05 13:06:21;;;;;;;63.42;39.30;;;;;;;;;;6274762;22;19996;-68
2023/01/05 13:08:51;;;;;;;65.35;39.97;;;;;;;;;;6275535;22;20030;-69
2023/01/05 13:11:30;;;;;;;63.20;39.75;;;;;;;;;;6275257;22;20324;-68
2023/01/05 13:13:59;;;;;;;65.38;39.75;;;;;;;;;;6248100;22;20491;-69
2023/01/05 13:16:45;;;;;;;61.67;38.38;;;;;;;;;;6274944;22;19996;-68
2023/01/05 13:19:16;;;;;;;66.68;39.42;;;;;;;;;;6275079;22;20079;-67
2023/01/05 13:21:44;;;;;;;65.75;39.70;;;;;;;;;;6277510;22;20000;-68
2023/01/05 13:24:21;;;;;;;67.65;40.22;;;;;;;;;;6277287;22;20003;-70
2023/01/05 13:26:47;;;;;;;62.42;37.75;;;;;;;;;;6276990;22;20000;-68
2023/01/05 13:29:22;;;;;;;63.45;38.17;;;;;;;;;;6276881;22;20019;-69
2023/01/05 13:32:07;;;;;;;63.75;39.20;;;;;;;;;;6277726;22;20008;-70
2023/01/05 13:34:33;;;;;;;63.75;37.88;;;;;;;;;;6276616;22;19999;-70
2023/01/05 13:36:59;;;;;;;66.47;39.58;;;;;;;;;;6274002;22;20114;-69
2023/01/05 13:39:25;;;;;;;62.33;38.60;;;;;;;;;;6247315;22;20062;-70
2023/01/05 13:42:00;;;;;;;69.60;39.97;;;;;;;;;;6277727;22;20029;-69
2023/01/05 13:44:45;;;;;;;64.95;37.83;;;;;;;;;;6250170;22;20319;-69
2023/01/05 13:47:20;;;;;;;66.07;40.17;;;;;;;;;;6277339;22;20362;-70
2023/01/05 13:49:58;;;;;;;70.53;39.58;;;;;;;;;;6277610;22;20406;-69
2023/01/05 13:52:43;;;;;;;68.72;39.33;;;;;;;;;;6277298;22;20118;-71
2023/01/05 13:55:14;;;;;;;65.93;39.85;;;;;;;;;;6277705;22;20369;-69
2023/01/05 13:57:42;;;;;;;68.32;38.25;;;;;;;;;;6277919;22;19995;-70
2023/01/05 14:00:28;;;;;;;65.95;38.08;;;;;;;;;;6250421;22;20077;-69
2023/01/05 14:03:06;;;;;;;66.35;39.65;;;;;;;;;;6277139;22;20011;-70
2023/01/05 14:05:33;;;;;;;66.97;39.05;;;;;;;;;;6277568;22;19996;-69
2023/01/05 14:08:01;;;;;;;67.53;39.15;;;;;;;;;;6277632;22;20007;-69
2023/01/05 14:10:29;;;;;;;69.07;39.65;;;;;;;;;;6277293;22;20057;-68
2023/01/05 14:12:55;;;;;;;68.40;39.03;;;;;;;;;;6277691;22;20331;-69
2023/01/05 14:15:27;;;;;;;63.08;38.55;;;;;;;;;;6277565;22;20000;-69
2023/01/05 14:17:54;;;;;;;61.80;38.25;;;;;;;;;;6277712;22;20000;-70
2023/01/05 14:20:29;;;;;;;62.45;38.20;;;;;;;;;;6277578;22;20000;-68
2023/01/05 14:22:55;;;;;;;62.88;39.10;;;;;;;;;;6277455;22;20018;-69
2023/01/05 14:25:40;;;;;;;65.93;38.13;;;;;;;;;;6277744;22;20332;-69
2023/01/05 14:28:18;;;;;;;60.92;36.78;;;;;;;;;;6277281;22;20016;-69
2023/01/05 14:30:44;;;;;;;60.70;38.00;;;;;;;;;;6277368;22;20381;-68
2023/01/05 14:33:10;;;;;;;61.42;37.38;;;;;;;;;;6276974;22;20416;-69
2023/01/05 14:35:37;;;;;;;58.22;37.60;;;;;;;;;;6276979;22;20027;-69
2023/01/05 14:38:03;;;;;;;63.35;38.28;;;;;;;;;;6277124;22;20003;-68
2023/01/05 14:40:32;;;;;;;62.08;39.22;;;;;;;;;;6274824;22;20007;-68
2023/01/05 14:43:00;;;;;;;61.50;39.17;;;;;;;;;;6276369;22;20018;-68
2023/01/05 14:45:30;;;;;;;63.83;40.78;;;;;;;;;;6276343;22;20000;-71
2023/01/05 14:47:58;;;;;;;61.78;38.03;;;;;;;;;;6276655;22;20004;-69
2023/01/05 14:50:27;;;;;;;67.65;39.95;;;;;;;;;;6275991;22;20279;-69
2023/01/05 14:52:55;;;;;;;62.60;38.95;;;;;;;;;;6276262;22;20074;-68
2023/01/05 14:55:21;;;;;;;62.85;39.90;;;;;;;;;;6275889;22;20079;-69
2023/01/05 14:57:48;;;;;;;63.17;38.55;;;;;;;;;;6276206;22;20378;-68
2023/01/05 15:00:36;;;;;;;69.53;40.70;;;;;;;;;;6275915;22;20029;-68